Latest Coastal Weather Observations for Broome Port

IDW60701

Issued at 11:03 am WST Saturday 1 October 2016 (issued every 10 minutes, with the page automatically refreshed every 10 minutes)

About coastal observations | Map of coastal stations | Coastal observations for WA | Marine services | Other Formats
Station Details ID: 003102 Name: BROOME NTC AWS Lat: -18.00 Lon: 122.22 Height: 0.0 m
Data from the previous 72 hours. | See also: Recent months for locations in Western Australia
Date/Time
WST
Temp
°C
Wind Pressure Rain since
9am
mm
Weather Cloud Vis
km
Sea
Height
m
Swell
Dir  Spd
kts
Gust
kts
hPa Trend Height
m
Period
s
Dir
01/11:00am 23.5 S 11 13 1010.5 - - - - - - - - -
01/10:30am 23.4 SSW 12 14 1010.9 - - - - - - - - -
01/10:00am 23.3 SSW 14 15 1010.9 - - - - - - - - -
01/09:30am 25.3 S 7 16 1011.1 - - - - - - - - -
01/09:00am 25.3 S 4 8 1011.2 - - - - - - - - -
01/08:30am 24.7 E 7 8 1010.8 - - - - - - - - -
01/08:00am 24.2 ESE 6 7 1010.7 - - - - - - - - -
01/07:30am 23.8 ESE 7 9 1010.2 - - - - - - - - -
01/07:00am 23.2 S 6 8 1010.3 - - - - - - - - -
01/06:30am 24.0 SSE 3 5 1009.7 - - - - - - - - -
01/06:00am 23.6 S 4 6 1008.9 - - - - - - - - -
01/05:30am 23.3 NW 4 6 1009.4 - - - - - - - - -
01/05:00am 23.4 SE 2 3 1008.5 - - - - - - - - -
01/04:30am 23.4 SSE 3 5 1008.3 - - - - - - - - -
01/04:00am 23.4 S 7 8 1007.9 - - - - - - - - -
01/03:30am 23.1 S 10 13 1007.6 - - - - - - - - -
01/03:00am 23.7 S 8 10 1007.5 - - - - - - - - -
01/02:30am 23.7 SSE 8 10 1007.4 - - - - - - - - -
01/02:00am 23.6 S 8 10 1008.0 - - - - - - - - -
01/01:30am 23.6 S 9 11 1007.9 - - - - - - - - -
01/01:00am 23.8 S 11 13 1008.0 - - - - - - - - -
01/12:30am 24.3 S 9 11 1008.4 - - - - - - - - -
01/12:00am 25.2 S 12 14 1008.5 - - - - - - - - -
 
Date/Time
WST
Temp
°C
Wind Pressure Rain since
9am
mm
Weather Cloud Vis
km
Sea
Height
m
Swell
Dir  Spd
kts
Gust
kts
hPa Trend Height
m
Period
s
Dir
30/11:30pm 25.6 SSE 11 13 1008.1 - - - - - - - - -
30/11:00pm 26.1 SSE 13 15 1008.2 - - - - - - - - -
30/10:30pm 26.6 S 16 19 1008.5 - - - - - - - - -
30/10:00pm 27.4 S 12 15 1008.8 - - - - - - - - -
30/09:30pm 27.8 S 13 15 1008.8 - - - - - - - - -
30/09:00pm 28.2 S 15 17 1008.6 - - - - - - - - -
30/08:30pm 27.6 SW 12 15 1008.4 - - - - - - - - -
30/08:00pm 26.9 SW 17 19 1007.8 - - - - - - - - -
30/07:30pm 26.8 SW 20 24 1007.2 - - - - - - - - -
30/07:00pm 27.0 WSW 20 25 1006.7 - - - - - - - - -
30/06:30pm 27.8 WSW 19 24 1006.4 - - - - - - - - -
30/06:00pm 27.5 WSW 17 21 1006.2 - - - - - - - - -
30/05:30pm 27.1 WSW 18 21 1005.7 - - - - - - - - -
30/05:00pm 28.2 WSW 11 15 1005.3 - - - - - - - - -
30/04:30pm 30.8 W 11 13 1004.8 - - - - - - - - -
30/04:00pm 30.2 W 10 13 1004.7 - - - - - - - - -
30/03:30pm 30.6 W 10 14 1004.7 - - - - - - - - -
30/03:00pm 31.6 W 10 12 1004.6 - - - - - - - - -
30/02:30pm 31.8 WSW 10 11 1004.8 - - - - - - - - -
30/02:00pm 31.3 SW 10 11 1005.0 - - - - - - - - -
30/01:30pm 32.0 SSW 6 8 1005.2 - - - - - - - - -
30/01:00pm 31.8 SSW 7 8 1005.6 - - - - - - - - -
30/12:30pm 31.5 S 5 5 1006.2 - - - - - - - - -
30/12:00pm 31.3 S 6 7 1006.8 - - - - - - - - -
30/11:30am 30.6 SE 5 6 1007.5 - - - - - - - - -
30/11:00am 29.8 SE 7 8 1008.0 - - - - - - - - -
30/10:30am 28.4 ESE 6 7 1008.6 - - - - - - - - -
30/10:00am 27.7 SSE 5 6 1009.4 - - - - - - - - -
30/09:30am 27.2 SE 6 7 1009.6 - - - - - - - - -
30/09:00am 26.9 ESE 8 10 1010.1 - - - - - - - - -
30/08:30am 25.4 ESE 9 10 1009.7 - - - - - - - - -
30/08:00am 25.6 ESE 11 13 1009.7 - - - - - - - - -
30/07:30am 25.8 ESE 13 15 1009.5 - - - - - - - - -
30/07:00am 25.8 ESE 13 15 1008.9 - - - - - - - - -
30/06:30am 25.6 E 11 13 1008.7 - - - - - - - - -
30/06:00am 25.5 E 9 11 1008.1 - - - - - - - - -
30/05:30am 25.8 E 7 8 1008.0 - - - - - - - - -
30/05:00am 26.0 ESE 9 10 1007.8 - - - - - - - - -
30/04:30am 25.8 ESE 10 11 1007.8 - - - - - - - - -
30/04:00am 25.9 ESE 8 10 1007.7 - - - - - - - - -
30/03:30am 26.0 ESE 8 10 1007.4 - - - - - - - - -
30/03:00am 26.1 ESE 7 9 1007.4 - - - - - - - - -
30/02:30am 26.4 ESE 8 10 1007.3 - - - - - - - - -
30/02:00am 26.9 ESE 9 15 1007.4 - - - - - - - - -
30/01:30am 26.9 SE 10 12 1007.5 - - - - - - - - -
30/01:00am 27.1 SE 10 13 1007.6 - - - - - - - - -
30/12:30am 27.5 SE 12 13 1007.9 - - - - - - - - -
30/12:00am 27.6 SE 11 15 1008.0 - - - - - - - - -
 
Date/Time
WST
Temp
°C
Wind Pressure Rain since
9am
mm
Weather Cloud Vis
km
Sea
Height
m
Swell
Dir  Spd
kts
Gust
kts
hPa Trend Height
m
Period
s
Dir
29/11:30pm 28.0 SE 11 13 1008.2 - - - - - - - - -
29/11:00pm 28.0 SE 9 12 1008.4 - - - - - - - - -
29/10:30pm 28.3 SSE 9 11 1008.7 - - - - - - - - -
29/10:00pm 28.9 SSE 8 10 1008.8 - - - - - - - - -
29/09:30pm 29.3 S 7 8 1008.8 - - - - - - - - -
29/09:00pm 28.1 SSW 9 11 1008.8 - - - - - - - - -
29/08:30pm 28.1 SW 10 14 1008.6 - - - - - - - - -
29/08:00pm 28.1 SW 11 13 1008.4 - - - - - - - - -
29/07:30pm 28.1 SW 13 15 1008.0 - - - - - - - - -
29/07:00pm 27.9 WSW 12 14 1007.6 - - - - - - - - -
29/06:30pm 27.9 WSW 11 13 1007.4 - - - - - - - - -
29/06:00pm 28.0 WSW 12 14 1007.0 - - - - - - - - -
29/05:30pm 27.6 WSW 13 15 1006.7 - - - - - - - - -
29/05:00pm 28.0 WSW 12 13 1006.5 - - - - - - - - -
29/04:30pm 29.0 WSW 9 11 1006.3 - - - - - - - - -
29/04:00pm 33.9 SSE 4 4 1006.2 - - - - - - - - -
29/03:30pm - S 3 4 1006.3 - - - - - - - - -
29/03:00pm 33.5 S 2 2 1006.4 - - - - - - - - -
29/02:30pm 33.2 SSE 4 5 1006.7 - - - - - - - - -
29/02:00pm 32.1 SSE 5 6 1007.0 - - - - - - - - -
29/01:30pm 30.9 SE 7 8 1007.4 - - - - - - - - -
29/01:00pm 31.5 SE 9 9 1007.9 - - - - - - - - -
29/12:30pm 30.8 SE 10 11 1008.4 - - - - - - - - -
29/12:00pm 30.1 SE 10 12 1008.9 - - - - - - - - -
29/11:30am 30.0 ESE 12 14 1009.4 - - - - - - - - -
29/11:00am 29.7 SE 12 15 1010.1 - - - - - - - - -
29/10:30am 29.6 ESE 14 18 1010.6 - - - - - - - - -
29/10:00am 29.2 ESE 16 19 1010.8 - - - - - - - - -
29/09:30am 28.5 SE 17 21 1011.1 - - - - - - - - -
29/09:00am 27.9 ESE 20 23 1011.2 - - - - - - - - -
29/08:30am 27.1 SE 20 23 1011.4 - - - - - - - - -
29/08:00am 26.7 SE 20 23 1011.4 - - - - - - - - -
29/07:30am 26.3 SE 17 20 1011.4 - - - - - - - - -
29/07:00am 26.4 SE 16 19 1011.0 - - - - - - - - -
29/06:30am 26.6 SSE 15 18 1010.6 - - - - - - - - -
29/06:00am 26.8 SSE 16 20 1010.2 - - - - - - - - -
29/05:30am 26.9 S 13 15 1009.7 - - - - - - - - -
29/05:00am 26.9 S 11 13 1009.3 - - - - - - - - -
29/04:30am 26.1 SSW 10 11 1009.2 - - - - - - - - -
29/04:00am 26.6 SSW 10 11 1009.1 - - - - - - - - -
29/03:30am 26.4 S 10 11 1008.9 - - - - - - - - -
29/03:00am 26.6 SSW 6 7 1008.9 - - - - - - - - -
29/02:30am 26.7 SSE 2 3 1008.9 - - - - - - - - -
29/02:00am 26.4 CALM 0 2 1008.9 - - - - - - - - -
29/01:30am 26.8 ENE 2 3 1009.0 - - - - - - - - -
29/01:00am 27.0 E 1 2 1009.4 - - - - - - - - -
29/12:30am 26.9 E 3 4 1009.5 - - - - - - - - -
29/12:00am 26.9 ESE 3 3 1009.7 - - - - - - - - -
 
Date/Time
WST
Temp
°C
Wind Pressure Rain since
9am
mm
Weather Cloud Vis
km
Sea
Height
m
Swell
Dir  Spd
kts
Gust
kts
hPa Trend Height
m
Period
s
Dir
28/11:30pm 26.9 SE 3 3 1010.0 - - - - - - - - -
28/11:00pm 26.9 SSE 4 4 1010.2 - - - - - - - - -
28/10:30pm 27.1 S 5 6 1010.5 - - - - - - - - -
28/10:00pm 27.1 S 5 6 1010.6 - - - - - - - - -
28/09:30pm 27.2 S 5 6 1010.6 - - - - - - - - -
28/09:00pm 27.4 S 8 9 1010.6 - - - - - - - - -
28/08:30pm 27.4 SSW 9 10 1010.3 - - - - - - - - -
28/08:00pm 27.2 SW 10 12 1010.0 - - - - - - - - -
28/07:30pm 26.8 SW 11 13 1009.7 - - - - - - - - -
28/07:00pm 26.2 WSW 13 15 1009.5 - - - - - - - - -
28/06:30pm 26.0 WSW 14 16 1009.2 - - - - - - - - -
28/06:00pm 25.8 WSW 12 14 1009.0 - - - - - - - - -
28/05:30pm 25.8 WSW 14 16 1008.9 - - - - - - - - -
28/05:00pm 26.0 WSW 15 17 1008.7 - - - - - - - - -
28/04:30pm 26.3 WSW 16 18 1008.4 - - - - - - - - -
28/04:00pm 26.5 WSW 15 17 1008.2 - - - - - - - - -
28/03:30pm 26.8 WSW 16 19 1008.3 - - - - - - - - -
28/03:00pm 27.1 WSW 15 18 1008.4 - - - - - - - - -
28/02:30pm 26.7 W 14 17 1008.7 - - - - - - - - -
28/02:00pm 26.7 W 11 14 1008.9 - - - - - - - - -
28/01:30pm 26.1 W 12 15 1009.2 - - - - - - - - -
28/01:00pm 26.6 WNW 8 10 1009.5 - - - - - - - - -
28/12:30pm 27.1 W 9 12 1010.1 - - - - - - - - -
28/12:00pm 27.1 W 7 9 1010.3 - - - - - - - - -
28/11:30am 26.4 WSW 11 12 1011.0 - - - - - - - - -

Other Formats:

Comma delimited format used in spreadsheet applications
http://www.bom.gov.au/fwo/IDW60701/IDW60701.95202.axf

JavaScript Object Notation format (JSON) in row-major order
http://www.bom.gov.au/fwo/IDW60701/IDW60701.95202.json